Aérodrome :
LOGIN :

S'inscrire | Disclaimer

   EN    FR    IT 

 










Légende :    VFR   VFR Marginal   IFR   IFR Intensif   IFR Très Intensif
Visi : 
Plafond : 
>= 8 km
>= 3000ft
5 à 8 km
1000 à 3000 ft
1500m à 5 km
500 à 1000 ft
800 à 1500m
200 à 500 ft
< 800m
< 200 ft
Symboles :   Orages  Brouillard  Fortes neiges  Fortes précipitations  Vent > 20 kt
SIGMETs :   Divers  Orages  Givrage  Turbulence  Onde Orograph.  Cendres Volcan.






- Altitude de l'aérodrome : 1260 ft
- Code IATA : LDE


LFBT - Tarbes / Ossun

DERNIER METAR :
  • 181700Z AUTO 04004KT 9999 OVC080 09/02 Q1019 TEMPO 4000 RA

METARs EXPIRÉS :
  • 181630Z AUTO 04004KT 010V080 9999 FEW064 OVC082 09/02 Q1019 TEMPO 4000 RA
  • 181600Z AUTO 04005KT 020V080 9999 OVC082 09/02 Q1019 BECMG 4000 RA
  • 181530Z AUTO 06004KT 360V120 9999 BKN088 10/01 Q1019 BECMG 4000 RA
  • 181500Z AUTO 05006KT 010V100 CAVOK 11/02 Q1019 BECMG 4000 RA
  • 181430Z AUTO 05008KT 010V100 CAVOK 11/01 Q1020 BECMG 4000 RA

TAF AMD TAF LFBT
Valide du 18 à 16h jusqu'au 19 à 12h UTC


181612Z 1816/1912 03004KT 9999 OVC060
TEMPO 1818/1822 4000 RA OVC040
TEMPO 1822/1906 1500 RA BKN005 OVC040
PROB30 1901/1904 1000 RA OVC002



MET'MAP, la Météo Aéronautique d'un coup d'oeil ! - Copyright ORBIFLY Décembre 2007 - Disclaimer

ORBIFLY MET'MAP TEAM :

Programmation & Développement : Alexandra Zaïnal
Sur une idée originale de : Baudouin d'Aumeries
Assistance à la programmation : Marc-Olivier Méhu
Soutien technique & logistique : Manuel Goepfert

Contact : metmap@orbifly.com




SOURCES & CREDITS :

   NOAA